Alleghenyville, Pennsylvania
Current Conditions -  °F | °C
As of 11:54 PM on Friday 21 Nov 2014 (Local Time) from KRDG Reporting Station
Clear Clear  
Wind Chill: -5°   Ceiling: Unl
Heat Index: -5°   Visibility: 10mi
Dew Point: -12°   Wind: 0mph
Humidity: 60%   Direction: NA
Pressure: 30.5"   Gusts: NA
Location:  40.2411°N, 75.9752°W
Report Text: KRDG 220454Z AUTO 00000KT 10SM CLR M05/M12 A3050 RMK AO2 SLP339 T10501117 400221056
Loading
Personal Weather Stations






























Interactive Weather Map New forecast layout! Learn more

10-Day Weather Forecast

Advertisements
Track Severe Weather on mobile